createdAt,value
2022-08-19T00:01:38.077Z,98.59
2022-08-19T00:04:09.548Z,98.41
2022-08-19T00:06:38.843Z,98.33
2022-08-19T00:09:08.618Z,98.38
2022-08-19T00:11:38.549Z,98.38
2022-08-19T00:14:10.830Z,98.51
2022-08-19T00:16:39.722Z,98.47
2022-08-19T00:19:08.871Z,97.94
2022-08-19T00:21:39.350Z,98.65
2022-08-19T00:24:08.146Z,100.00
2022-08-19T00:26:37.258Z,100.00
2022-08-19T00:29:08.201Z,100.00
2022-08-19T00:31:37.100Z,100.00
2022-08-19T00:34:05.488Z,100.00
2022-08-19T00:36:34.102Z,100.00
2022-08-19T00:39:03.160Z,100.00
2022-08-19T00:41:31.444Z,99.62
2022-08-19T00:44:01.960Z,99.82
2022-08-19T00:46:32.638Z,99.97
2022-08-19T00:49:02.222Z,100.00
2022-08-19T00:51:33.517Z,100.00
2022-08-19T00:54:03.355Z,100.00
2022-08-19T00:56:32.804Z,99.93
2022-08-19T00:59:03.097Z,99.88
2022-08-19T01:01:32.538Z,100.00
2022-08-19T01:04:01.084Z,99.54
2022-08-19T01:06:29.228Z,99.49
2022-08-19T01:08:57.954Z,99.97
2022-08-19T01:11:25.978Z,99.60
2022-08-19T01:13:55.265Z,99.49
2022-08-19T01:16:27.448Z,99.29
2022-08-19T01:18:57.486Z,99.43
2022-08-19T01:21:33.519Z,99.17
2022-08-19T01:24:03.391Z,99.71
2022-08-19T01:26:31.506Z,100.00
2022-08-19T01:29:02.164Z,100.00
2022-08-19T01:31:33.495Z,100.00
2022-08-19T01:34:03.041Z,100.00
2022-08-19T01:36:33.572Z,100.00
2022-08-19T01:39:05.305Z,100.00
2022-08-19T01:41:33.292Z,100.00
2022-08-19T01:44:03.312Z,100.00
2022-08-19T01:46:46.552Z,99.99
2022-08-19T01:49:14.563Z,100.00
2022-08-19T01:51:42.614Z,100.00
2022-08-19T01:54:14.334Z,99.91
2022-08-19T01:56:52.260Z,100.00
2022-08-19T01:59:24.072Z,100.00
2022-08-19T02:01:52.112Z,100.00
2022-08-19T02:04:20.561Z,100.00
2022-08-19T02:06:49.201Z,100.00
2022-08-19T02:09:19.033Z,100.00
2022-08-19T02:11:47.001Z,100.00
2022-08-19T02:14:14.965Z,100.00
2022-08-19T02:16:43.128Z,100.00
2022-08-19T02:19:11.786Z,100.00
2022-08-19T02:21:39.806Z,100.00
2022-08-19T02:24:08.286Z,100.00
2022-08-19T02:26:37.652Z,99.20
2022-08-19T02:29:06.510Z,99.42
2022-08-19T02:31:34.530Z,98.99
2022-08-19T02:34:03.276Z,99.00
2022-08-19T02:36:32.119Z,98.85
2022-08-19T02:38:59.552Z,98.68
2022-08-19T02:41:29.615Z,98.44
2022-08-19T02:44:29.688Z,98.37
2022-08-19T02:46:51.715Z,97.78
2022-08-19T02:49:22.058Z,97.63
2022-08-19T02:51:50.469Z,97.73
2022-08-19T02:54:18.906Z,97.83
2022-08-19T02:56:47.460Z,97.22
2022-08-19T02:59:17.236Z,97.22
2022-08-19T03:01:45.218Z,96.58
2022-08-19T03:04:16.914Z,97.04
2022-08-19T03:06:47.610Z,97.08
2022-08-19T03:09:16.815Z,97.32
2022-08-19T03:11:45.001Z,97.37
2022-08-19T03:14:14.246Z,97.24
2022-08-19T03:16:45.749Z,97.17
2022-08-19T03:19:15.440Z,98.08
2022-08-19T03:21:45.979Z,99.09
2022-08-19T03:24:15.589Z,100.00
2022-08-19T03:26:45.923Z,99.94
2022-08-19T03:29:14.551Z,100.00
2022-08-19T03:32:01.849Z,100.00
2022-08-19T03:34:31.799Z,99.87
2022-08-19T03:37:05.636Z,100.00
2022-08-19T03:39:34.187Z,100.00
2022-08-19T03:42:29.207Z,100.00
2022-08-19T03:44:51.669Z,99.53
2022-08-19T03:47:21.264Z,98.76
2022-08-19T03:49:49.257Z,98.55
2022-08-19T03:52:17.702Z,98.53
2022-08-19T03:54:46.013Z,98.18
2022-08-19T03:57:14.430Z,100.00
2022-08-19T03:59:42.554Z,100.00
2022-08-19T04:02:13.356Z,100.00
2022-08-19T04:04:45.744Z,100.00
2022-08-19T04:07:17.456Z,100.00
2022-08-19T04:09:45.976Z,100.00
2022-08-19T04:12:14.688Z,100.00
2022-08-19T04:14:43.415Z,99.68
2022-08-19T04:17:12.839Z,98.62
2022-08-19T04:19:43.921Z,98.27
2022-08-19T04:22:13.271Z,98.49
2022-08-19T04:24:41.296Z,97.84
2022-08-19T04:27:09.419Z,97.07
2022-08-19T04:29:40.782Z,97.02
2022-08-19T04:32:09.867Z,96.79
2022-08-19T04:35:02.241Z,96.89
2022-08-19T04:37:35.157Z,95.89
2022-08-19T04:40:22.667Z,96.08
2022-08-19T04:42:51.155Z,95.42
2022-08-19T04:45:19.179Z,94.79
2022-08-19T04:47:58.952Z,94.11
2022-08-19T04:50:43.123Z,93.61
2022-08-19T04:53:13.211Z,93.12
2022-08-19T04:55:42.860Z,93.01
2022-08-19T04:58:10.851Z,92.53
2022-08-19T05:00:41.149Z,92.45
2022-08-19T05:03:09.107Z,92.02
2022-08-19T05:05:44.563Z,91.12
2022-08-19T05:08:31.081Z,91.52
2022-08-19T05:10:59.731Z,90.82
2022-08-19T05:13:28.936Z,90.72
2022-08-19T05:15:59.110Z,91.27
2022-08-19T05:18:45.662Z,90.63
2022-08-19T05:21:35.417Z,90.46
2022-08-19T05:24:09.119Z,89.98
2022-08-19T05:26:37.391Z,90.19
2022-08-19T05:29:06.303Z,90.05
2022-08-19T05:31:35.467Z,89.34
2022-08-19T05:34:04.984Z,89.57
2022-08-19T05:36:47.817Z,90.55
2022-08-19T05:39:21.000Z,90.56
2022-08-19T05:41:53.595Z,90.28
2022-08-19T05:44:23.241Z,88.92
2022-08-19T05:46:53.807Z,89.85
2022-08-19T05:49:23.814Z,89.51
2022-08-19T05:51:52.233Z,89.18
2022-08-19T05:54:22.625Z,90.20
2022-08-19T05:56:51.632Z,91.34
2022-08-19T05:59:20.740Z,91.06
2022-08-19T06:01:51.453Z,91.09
2022-08-19T06:04:21.259Z,91.85
2022-08-19T06:06:53.643Z,91.25
2022-08-19T06:09:24.207Z,90.35
2022-08-19T06:11:56.026Z,90.16
2022-08-19T06:14:28.010Z,91.41
2022-08-19T06:16:56.480Z,91.28
2022-08-19T06:19:26.780Z,92.40
2022-08-19T06:21:55.368Z,92.67
2022-08-19T06:24:27.464Z,92.50
2022-08-19T06:27:00.748Z,91.88
2022-08-19T06:29:31.996Z,91.89
2022-08-19T06:32:01.884Z,93.90
2022-08-19T06:34:32.443Z,93.40
2022-08-19T06:37:02.982Z,93.60
2022-08-19T06:39:35.036Z,93.31
2022-08-19T06:42:07.230Z,92.04
2022-08-19T06:44:43.375Z,92.87
2022-08-19T06:47:23.119Z,92.61
2022-08-19T06:49:55.360Z,91.82
2022-08-19T06:52:29.107Z,91.08
2022-08-19T06:54:59.638Z,92.12
2022-08-19T06:57:28.533Z,91.15
2022-08-19T06:59:57.905Z,92.97
2022-08-19T07:02:27.362Z,93.72
2022-08-19T07:04:56.807Z,94.36
2022-08-19T07:07:25.906Z,92.51
2022-08-19T07:09:58.521Z,90.47
2022-08-19T07:12:32.354Z,88.60
2022-08-19T07:15:00.594Z,87.58
2022-08-19T07:17:30.250Z,84.58
2022-08-19T07:20:06.746Z,85.27
2022-08-19T07:22:35.033Z,83.78
2022-08-19T07:25:04.879Z,82.32
2022-08-19T07:27:34.995Z,84.66
2022-08-19T07:30:03.926Z,82.04
2022-08-19T07:32:32.552Z,81.91
2022-08-19T07:35:01.654Z,80.54
2022-08-19T07:37:33.064Z,80.30
2022-08-19T07:40:02.290Z,80.54
2022-08-19T07:42:31.146Z,79.20
2022-08-19T07:45:01.223Z,79.59
2022-08-19T07:47:49.106Z,78.95
2022-08-19T07:50:20.052Z,80.55
2022-08-19T07:52:48.771Z,81.97
2022-08-19T07:55:42.110Z,80.42
2022-08-19T07:58:08.491Z,81.06
2022-08-19T08:00:38.581Z,79.76
2022-08-19T08:03:06.654Z,82.41
2022-08-19T08:05:52.513Z,81.35
2022-08-19T08:08:44.160Z,80.42
2022-08-19T08:11:20.101Z,79.20
2022-08-19T08:14:01.221Z,77.28
2022-08-19T08:16:39.529Z,74.61
2022-08-19T08:19:22.930Z,73.29
2022-08-19T08:21:55.202Z,71.45
2022-08-19T08:24:22.583Z,72.90
2022-08-19T08:26:58.005Z,70.95
2022-08-19T08:29:26.758Z,70.97
2022-08-19T08:32:14.231Z,70.85
2022-08-19T08:34:43.341Z,72.38
2022-08-19T08:37:11.661Z,72.77
2022-08-19T08:39:39.707Z,73.47
2022-08-19T08:42:17.960Z,72.54
2022-08-19T08:47:27.553Z,78.97
2022-08-19T08:50:01.412Z,78.04
2022-08-19T08:52:36.768Z,75.45
2022-08-19T08:55:14.831Z,76.52
2022-08-19T08:57:52.135Z,76.78
2022-08-19T09:00:23.377Z,76.40
2022-08-19T09:02:53.183Z,76.41
2022-08-19T09:05:26.007Z,75.42
2022-08-19T09:08:03.592Z,75.50
2022-08-19T09:10:43.977Z,75.22
2022-08-19T09:13:23.569Z,74.38
2022-08-19T09:15:57.137Z,76.06
2022-08-19T09:18:26.917Z,77.78
2022-08-19T09:20:58.296Z,78.10
2022-08-19T09:23:26.768Z,78.79
2022-08-19T09:25:55.291Z,79.76
2022-08-19T09:28:27.289Z,77.33
2022-08-19T09:30:55.501Z,75.31
2022-08-19T09:33:23.844Z,76.44
2022-08-19T09:36:04.338Z,75.63
2022-08-19T09:38:37.465Z,73.38
2022-08-19T09:41:14.597Z,75.00
2022-08-19T09:43:47.934Z,74.91
2022-08-19T09:46:18.404Z,75.10
2022-08-19T09:48:49.636Z,78.08
2022-08-19T09:51:21.662Z,78.64
2022-08-19T09:53:54.976Z,77.09
2022-08-19T09:56:24.701Z,76.20
2022-08-19T09:58:52.950Z,75.72
2022-08-19T10:01:24.309Z,75.54
2022-08-19T10:03:55.630Z,75.67
2022-08-19T10:06:43.251Z,75.38
2022-08-19T10:09:15.846Z,76.10
2022-08-19T10:11:54.472Z,75.13
2022-08-19T10:14:23.708Z,70.31
2022-08-19T10:16:52.822Z,68.50
2022-08-19T10:19:25.798Z,69.21
2022-08-19T10:22:00.505Z,70.35
2022-08-19T10:24:29.420Z,71.32
2022-08-19T10:26:59.956Z,73.27
2022-08-19T10:29:33.001Z,74.61
2022-08-19T10:32:02.683Z,74.71
2022-08-19T10:34:33.001Z,76.70
2022-08-19T10:37:02.471Z,75.69
2022-08-19T10:39:32.664Z,72.62
2022-08-19T10:42:11.612Z,70.41
2022-08-19T10:44:40.786Z,68.32
2022-08-19T10:47:17.513Z,69.67
2022-08-19T10:50:12.291Z,70.30
2022-08-19T10:52:49.789Z,72.21
2022-08-19T10:55:38.214Z,74.53
2022-08-19T10:58:06.915Z,72.58
2022-08-19T11:00:38.982Z,72.26
2022-08-19T11:03:06.936Z,70.85
2022-08-19T11:05:40.075Z,69.80
2022-08-19T11:08:23.416Z,69.37
2022-08-19T11:10:54.858Z,68.04
2022-08-19T11:13:23.018Z,67.66
2022-08-19T11:16:01.712Z,66.36
2022-08-19T11:18:31.931Z,66.78
2022-08-19T11:21:08.078Z,66.47
2022-08-19T11:23:37.382Z,66.84
2022-08-19T11:26:05.426Z,66.43
2022-08-19T11:28:33.698Z,69.02
2022-08-19T11:31:02.738Z,71.44
2022-08-19T11:33:30.688Z,72.11
2022-08-19T11:36:01.298Z,71.54
2022-08-19T11:38:30.207Z,73.75
2022-08-19T11:41:01.759Z,74.34
2022-08-19T11:43:35.487Z,77.72
2022-08-19T11:46:08.148Z,81.45
2022-08-19T11:48:36.849Z,86.51
2022-08-19T11:51:08.639Z,88.46
2022-08-19T11:53:37.466Z,89.48
2022-08-19T11:56:09.447Z,90.19
2022-08-19T11:58:38.135Z,90.48
2022-08-19T12:01:09.144Z,90.92
2022-08-19T12:03:37.706Z,88.96
2022-08-19T12:06:07.703Z,88.64
2022-08-19T12:08:35.826Z,88.72
2022-08-19T12:11:04.258Z,90.81
2022-08-19T12:13:33.624Z,89.54
2022-08-19T12:16:02.155Z,88.25
2022-08-19T12:18:30.129Z,88.61
2022-08-19T12:20:58.457Z,88.15
2022-08-19T12:23:26.428Z,87.26
2022-08-19T12:25:56.006Z,85.92
2022-08-19T12:30:55.214Z,85.35
2022-08-19T12:33:26.058Z,85.10
2022-08-19T12:35:54.451Z,86.05
2022-08-19T12:38:25.188Z,83.89
2022-08-19T12:40:58.323Z,84.30
2022-08-19T12:43:28.339Z,84.40
2022-08-19T12:45:57.688Z,83.13
2022-08-19T12:48:33.780Z,83.91
2022-08-19T12:51:09.536Z,82.84
2022-08-19T12:53:39.308Z,84.03
2022-08-19T12:56:12.148Z,82.31
2022-08-19T12:58:42.695Z,82.13
2022-08-19T13:01:22.051Z,81.88
2022-08-19T13:03:53.193Z,82.69
2022-08-19T13:06:21.790Z,81.70
2022-08-19T13:08:49.808Z,78.58
2022-08-19T13:11:20.307Z,78.70
2022-08-19T13:13:51.286Z,79.29
2022-08-19T13:16:23.324Z,77.18
2022-08-19T13:18:52.885Z,76.11
2022-08-19T13:21:23.185Z,75.05
2022-08-19T13:23:52.294Z,73.04
2022-08-19T13:26:21.339Z,73.73
2022-08-19T13:29:06.899Z,69.91
2022-08-19T13:31:58.847Z,68.77
2022-08-19T13:34:33.387Z,66.14
2022-08-19T13:37:03.954Z,68.24
2022-08-19T13:39:33.740Z,68.34
2022-08-19T13:42:01.799Z,67.00
2022-08-19T13:44:31.151Z,66.37
2022-08-19T13:47:07.019Z,66.17
2022-08-19T13:49:36.011Z,68.94
2022-08-19T13:52:04.945Z,69.66
2022-08-19T13:54:32.918Z,71.25
2022-08-19T13:57:01.419Z,72.49
2022-08-19T13:59:29.361Z,72.25
2022-08-19T14:02:00.461Z,72.24
2022-08-19T14:04:29.839Z,71.91
2022-08-19T14:06:57.787Z,69.72
2022-08-19T14:09:25.940Z,69.25
2022-08-19T14:11:53.962Z,68.47
2022-08-19T14:14:22.427Z,68.98
2022-08-19T14:16:50.978Z,69.31
2022-08-19T14:19:18.914Z,69.04
2022-08-19T14:21:48.375Z,67.54
2022-08-19T14:24:16.476Z,67.51
2022-08-19T14:26:44.666Z,68.85
2022-08-19T14:29:13.558Z,69.88
2022-08-19T14:31:44.024Z,70.16
2022-08-19T14:34:13.676Z,70.52
2022-08-19T14:36:42.900Z,72.46
2022-08-19T14:39:12.578Z,71.60
2022-08-19T14:41:43.298Z,72.71
2022-08-19T14:44:13.451Z,73.21
2022-08-19T14:46:48.563Z,71.88
2022-08-19T14:49:17.829Z,72.71
2022-08-19T14:51:48.210Z,72.90
2022-08-19T14:54:17.639Z,71.52
2022-08-19T14:56:46.269Z,72.39
2022-08-19T14:59:14.353Z,73.58
2022-08-19T15:01:42.832Z,73.77
2022-08-19T15:04:10.863Z,74.20
2022-08-19T15:06:39.599Z,75.56
2022-08-19T15:09:07.928Z,75.44
2022-08-19T15:11:38.447Z,76.08
2022-08-19T15:14:07.941Z,74.88
2022-08-19T15:16:35.903Z,75.06
2022-08-19T15:19:03.885Z,75.89
2022-08-19T15:21:32.501Z,75.46
2022-08-19T15:24:01.729Z,75.27
2022-08-19T15:26:33.413Z,74.34
2022-08-19T15:29:04.028Z,74.46
2022-08-19T15:31:35.540Z,74.63
2022-08-19T15:34:06.842Z,74.43
2022-08-19T15:36:35.716Z,76.23
2022-08-19T15:39:05.415Z,74.18
2022-08-19T15:41:33.872Z,74.83
2022-08-19T15:44:09.009Z,74.54
2022-08-19T15:46:39.717Z,74.80
2022-08-19T15:49:08.750Z,74.79
2022-08-19T15:51:37.928Z,75.18
2022-08-19T15:54:08.730Z,74.89
2022-08-19T15:56:58.277Z,74.95
2022-08-19T15:59:46.914Z,75.36
2022-08-19T16:02:34.005Z,75.92
2022-08-19T16:05:19.586Z,76.34
2022-08-19T16:07:49.009Z,76.73
2022-08-19T16:10:27.234Z,76.75
2022-08-19T16:12:57.978Z,77.03
2022-08-19T16:15:28.528Z,78.13
2022-08-19T16:17:57.953Z,81.29
2022-08-19T16:20:27.869Z,82.79
2022-08-19T16:22:56.585Z,84.53
2022-08-19T16:25:29.358Z,86.42
2022-08-19T16:28:07.680Z,86.76
2022-08-19T16:30:39.320Z,87.34
2022-08-19T16:33:08.782Z,89.31
2022-08-19T16:35:37.292Z,89.84
2022-08-19T16:38:07.313Z,90.47
2022-08-19T16:40:35.526Z,90.99
2022-08-19T16:43:04.156Z,91.83
2022-08-19T16:45:32.258Z,90.34
2022-08-19T16:48:02.033Z,93.04
2022-08-19T16:50:48.213Z,93.42
2022-08-19T16:53:17.808Z,94.22
2022-08-19T16:55:47.502Z,94.30
2022-08-19T16:58:15.853Z,95.92
2022-08-19T17:00:44.002Z,96.59
2022-08-19T17:03:15.205Z,96.71
2022-08-19T17:05:44.087Z,97.04
2022-08-19T17:08:12.480Z,98.10
2022-08-19T17:10:45.710Z,98.39
2022-08-19T17:13:26.819Z,99.30
2022-08-19T17:15:55.531Z,99.80
2022-08-19T17:18:26.199Z,100.00
2022-08-19T17:21:00.970Z,100.00
2022-08-19T17:23:42.474Z,99.73
2022-08-19T17:26:17.974Z,99.58
2022-08-19T17:28:49.847Z,99.68
2022-08-19T17:31:19.088Z,99.24
2022-08-19T17:33:49.064Z,98.77
2022-08-19T17:36:18.234Z,98.53
2022-08-19T17:38:47.145Z,98.78
2022-08-19T17:41:15.146Z,98.90
2022-08-19T17:43:44.170Z,99.23
2022-08-19T17:46:18.082Z,99.21
2022-08-19T17:48:52.086Z,99.19
2022-08-19T17:51:23.739Z,99.45
2022-08-19T17:53:53.647Z,98.73
2022-08-19T17:56:23.943Z,98.62
2022-08-19T17:58:59.911Z,98.55
2022-08-19T18:01:43.977Z,97.48
2022-08-19T18:04:20.140Z,97.99
2022-08-19T18:06:53.547Z,97.54
2022-08-19T18:09:24.583Z,97.61
2022-08-19T18:11:54.520Z,97.60
2022-08-19T18:14:32.149Z,97.81
2022-08-19T18:17:05.828Z,97.94
2022-08-19T18:19:41.460Z,96.16
2022-08-19T18:22:12.517Z,96.53
2022-08-19T18:24:41.680Z,97.00
2022-08-19T18:27:10.328Z,98.21
2022-08-19T18:29:40.172Z,97.59
2022-08-19T18:32:13.056Z,97.24
2022-08-19T18:34:44.138Z,96.98
2022-08-19T18:37:12.626Z,96.82
2022-08-19T18:39:58.204Z,96.64
2022-08-19T18:42:44.135Z,97.32
2022-08-19T18:45:29.884Z,97.76
2022-08-19T18:48:25.740Z,97.54
2022-08-19T18:50:58.258Z,98.48
2022-08-19T18:53:27.411Z,98.24
2022-08-19T18:55:55.772Z,97.54
2022-08-19T18:58:26.648Z,97.00
2022-08-19T19:00:57.446Z,97.42
2022-08-19T19:03:26.225Z,97.74
2022-08-19T19:05:54.803Z,97.83
2022-08-19T19:08:27.259Z,98.32
2022-08-19T19:10:56.415Z,97.78
2022-08-19T19:13:24.833Z,98.76
2022-08-19T19:15:54.462Z,98.29
2022-08-19T19:18:22.445Z,98.49
2022-08-19T19:20:50.842Z,98.64
2022-08-19T19:23:18.787Z,98.82
2022-08-19T19:25:50.696Z,99.00
2022-08-19T19:28:24.366Z,99.06
2022-08-19T19:30:53.879Z,98.44
2022-08-19T19:33:21.840Z,98.39
2022-08-19T19:35:50.388Z,98.16
2022-08-19T19:38:18.363Z,98.42
2022-08-19T19:40:47.679Z,98.29
2022-08-19T19:43:17.220Z,98.00
2022-08-19T19:45:45.387Z,97.98
2022-08-19T19:48:16.286Z,98.13
2022-08-19T19:50:46.243Z,99.05
2022-08-19T19:53:24.600Z,98.57
2022-08-19T19:55:59.225Z,98.12
2022-08-19T19:58:28.931Z,99.04
2022-08-19T20:00:58.937Z,98.82
2022-08-19T20:03:27.870Z,98.88
2022-08-19T20:05:59.834Z,98.46
2022-08-19T20:08:45.988Z,98.50
2022-08-19T20:11:31.781Z,99.33
2022-08-19T20:14:02.411Z,98.40
2022-08-19T20:16:31.643Z,98.93
2022-08-19T20:19:01.096Z,97.81
2022-08-19T20:21:33.137Z,97.98
2022-08-19T20:24:09.145Z,97.75
2022-08-19T20:26:40.990Z,97.91
2022-08-19T20:29:38.471Z,97.42
2022-08-19T20:31:59.451Z,97.70
2022-08-19T20:34:28.803Z,97.63
2022-08-19T20:36:56.914Z,98.16
2022-08-19T20:39:24.878Z,98.06
2022-08-19T20:41:56.781Z,98.00
2022-08-19T20:44:25.907Z,98.07
2022-08-19T20:46:57.511Z,98.04
2022-08-19T20:49:27.480Z,97.46
2022-08-19T20:51:56.630Z,96.84
2022-08-19T20:54:24.909Z,96.91
2022-08-19T20:56:54.703Z,96.29
2022-08-19T20:59:24.176Z,96.61
2022-08-19T21:01:53.074Z,96.63
2022-08-19T21:04:23.076Z,97.18
2022-08-19T21:06:51.959Z,97.61
2022-08-19T21:09:20.283Z,98.31
2022-08-19T21:11:49.070Z,100.00
2022-08-19T21:14:19.059Z,100.00
2022-08-19T21:16:47.091Z,100.00
2022-08-19T21:19:15.065Z,100.00
2022-08-19T21:21:43.019Z,100.00
2022-08-19T21:24:11.435Z,100.00
2022-08-19T21:26:39.439Z,99.68
2022-08-19T21:29:07.614Z,99.52
2022-08-19T21:31:37.373Z,99.66
2022-08-19T21:34:05.439Z,98.89
2022-08-19T21:36:33.806Z,98.36
2022-08-19T21:39:01.704Z,98.75
2022-08-19T21:41:29.670Z,98.73
2022-08-19T21:43:58.348Z,98.31
2022-08-19T21:46:26.365Z,98.09
2022-08-19T21:48:56.201Z,98.38
2022-08-19T21:51:24.207Z,99.30
2022-08-19T21:53:52.979Z,98.21
2022-08-19T21:56:21.599Z,99.64
2022-08-19T21:58:49.795Z,99.19
2022-08-19T22:01:18.846Z,99.20
2022-08-19T22:03:46.858Z,99.20
2022-08-19T22:06:16.390Z,100.00
2022-08-19T22:08:45.271Z,99.88
2022-08-19T22:11:13.216Z,99.52
2022-08-19T22:13:41.654Z,99.47
2022-08-19T22:16:10.095Z,98.46
2022-08-19T22:18:38.111Z,97.95
2022-08-19T22:21:11.666Z,98.31
2022-08-19T22:23:41.783Z,97.71
2022-08-19T22:26:10.309Z,97.38
2022-08-19T22:28:39.516Z,97.24
2022-08-19T22:31:08.194Z,97.63
2022-08-19T22:33:36.959Z,97.62
2022-08-19T22:36:07.959Z,97.79
2022-08-19T22:38:37.708Z,97.70
2022-08-19T22:41:08.134Z,98.11
2022-08-19T22:43:37.577Z,97.57
2022-08-19T22:46:17.249Z,97.44
2022-08-19T22:48:47.328Z,96.97
2022-08-19T22:51:32.682Z,97.55
2022-08-19T22:54:01.472Z,96.85
2022-08-19T22:56:32.021Z,97.58
2022-08-19T22:59:00.538Z,97.25
2022-08-19T23:01:30.570Z,97.64
2022-08-19T23:04:03.660Z,97.41
2022-08-19T23:06:33.794Z,97.65
2022-08-19T23:09:04.844Z,97.63
2022-08-19T23:11:39.866Z,97.46
2022-08-19T23:14:11.671Z,97.64
2022-08-19T23:16:41.600Z,97.35
2022-08-19T23:19:10.273Z,97.34
2022-08-19T23:21:38.946Z,97.60
2022-08-19T23:24:07.463Z,97.44
2022-08-19T23:26:37.189Z,97.31
2022-08-19T23:29:24.784Z,97.12
2022-08-19T23:31:52.728Z,97.15
2022-08-19T23:34:21.166Z,97.67
2022-08-19T23:36:51.285Z,97.36
2022-08-19T23:39:19.426Z,97.56
2022-08-19T23:41:49.392Z,97.97
2022-08-19T23:44:17.460Z,97.72
2022-08-19T23:46:54.749Z,98.00
2022-08-19T23:49:25.738Z,97.69
2022-08-19T23:51:55.087Z,98.12
2022-08-19T23:54:34.411Z,98.51
2022-08-19T23:57:14.444Z,98.02
2022-08-19T23:59:45.846Z,98.24
